createdAt,value
2018-11-29T00:00:33.728Z,36.93
2018-11-29T00:01:33.712Z,36.94
2018-11-29T00:02:33.701Z,37.02
2018-11-29T00:03:33.688Z,36.72
2018-11-29T00:04:33.678Z,36.82
2018-11-29T00:05:33.668Z,36.44
2018-11-29T00:06:33.657Z,37.72
2018-11-29T00:07:33.644Z,36.54
2018-11-29T00:08:33.634Z,36.52
2018-11-29T00:09:33.623Z,36.84
2018-11-29T00:10:33.614Z,37.04
2018-11-29T00:11:33.601Z,37.12
2018-11-29T00:12:33.591Z,37.12
2018-11-29T00:13:33.582Z,37.32
2018-11-29T00:14:33.570Z,37.94
2018-11-29T00:15:33.560Z,37.42
2018-11-29T00:16:33.545Z,37.12
2018-11-29T00:17:33.538Z,36.94
2018-11-29T00:18:33.526Z,37.82
2018-11-29T00:19:33.521Z,37.23
2018-11-29T00:20:33.501Z,37.42
2018-11-29T00:21:33.492Z,37.42
2018-11-29T00:22:33.483Z,38.22
2018-11-29T00:23:33.488Z,37.12
2018-11-29T00:24:33.459Z,36.63
2018-11-29T00:25:33.449Z,36.72
2018-11-29T00:26:33.437Z,36.82
2018-11-29T00:27:33.425Z,36.72
2018-11-29T00:28:33.416Z,36.72
2018-11-29T00:29:33.418Z,36.72
2018-11-29T00:30:33.432Z,36.02
2018-11-29T00:31:33.387Z,35.63
2018-11-29T00:32:33.372Z,36.02
2018-11-29T00:33:33.361Z,37.12
2018-11-29T00:34:33.362Z,37.62
2018-11-29T21:55:35.651Z,26.43
2018-11-29T21:56:35.637Z,26.83
2018-11-29T21:58:06.115Z,29.34
2018-11-29T21:59:06.090Z,31.74
2018-11-29T22:00:36.575Z,34.26
2018-11-29T22:01:36.568Z,34.56
2018-11-29T22:03:07.034Z,35.36
2018-11-29T22:04:06.995Z,35.55
2018-11-29T22:05:38.633Z,35.25
2018-11-29T22:06:38.363Z,35.64
2018-11-29T22:07:38.353Z,35.94
2018-11-29T22:08:38.341Z,36.65
2018-11-29T22:09:38.340Z,36.75
2018-11-29T22:10:38.318Z,36.35
2018-11-29T22:11:38.307Z,36.53
2018-11-29T22:12:38.304Z,36.33
2018-11-29T22:13:38.289Z,36.63
2018-11-29T22:14:38.280Z,36.53
2018-11-29T22:15:38.263Z,37.03
2018-11-29T22:16:38.254Z,37.03
2018-11-29T22:17:38.244Z,36.33
2018-11-29T22:18:38.239Z,37.31
2018-11-29T22:19:38.221Z,37.01
2018-11-29T22:20:38.219Z,36.51
2018-11-29T22:21:38.224Z,36.29
2018-11-29T22:22:38.191Z,36.19
2018-11-29T22:23:38.182Z,36.21
2018-11-29T22:24:38.169Z,36.90
2018-11-29T22:25:38.162Z,36.19
2018-11-29T22:26:38.151Z,37.29
2018-11-29T22:27:38.141Z,37.19
2018-11-29T22:28:38.126Z,37.40
2018-11-29T22:29:38.117Z,36.90
2018-11-29T22:30:38.106Z,36.18
2018-11-29T22:31:38.096Z,37.19
2018-11-29T22:32:38.093Z,36.99
2018-11-29T22:33:38.073Z,37.40
2018-11-29T22:34:38.063Z,37.48
2018-11-29T22:35:38.054Z,37.38
2018-11-29T22:36:38.060Z,37.48
2018-11-29T22:37:38.037Z,36.58
2018-11-29T22:38:38.142Z,36.47
2018-11-29T22:39:38.015Z,36.88
2018-11-29T22:40:38.001Z,37.06
2018-11-29T22:41:37.989Z,37.96
2018-11-29T22:42:38.003Z,38.06
2018-11-29T22:43:37.967Z,37.96
2018-11-29T22:44:37.956Z,36.56
2018-11-29T22:45:37.945Z,37.76
2018-11-29T22:46:37.934Z,37.34
2018-11-29T22:47:37.925Z,36.84
2018-11-29T22:48:37.915Z,36.96
2018-11-29T22:49:38.053Z,37.26
2018-11-29T22:50:37.893Z,36.44
2018-11-29T22:51:38.585Z,36.94
2018-11-29T22:52:37.869Z,36.04
2018-11-29T22:53:37.861Z,36.54
2018-11-29T22:54:37.851Z,36.34
2018-11-29T22:55:37.849Z,36.64
2018-11-29T22:56:37.834Z,36.84
2018-11-29T22:57:37.820Z,37.14
2018-11-29T22:58:37.806Z,36.54
2018-11-29T22:59:37.793Z,36.94
2018-11-29T23:00:37.811Z,36.82
2018-11-29T23:01:37.775Z,36.54
2018-11-29T23:02:37.761Z,36.63
2018-11-29T23:03:37.751Z,37.12
2018-11-29T23:04:37.742Z,36.63
2018-11-29T23:05:37.729Z,36.63
2018-11-29T23:06:37.719Z,36.43
2018-11-29T23:07:37.708Z,36.63
2018-11-29T23:08:37.704Z,36.22
2018-11-29T23:09:37.691Z,36.63
2018-11-29T23:10:37.676Z,37.12
2018-11-29T23:11:37.666Z,36.13
2018-11-29T23:12:37.658Z,36.52
2018-11-29T23:13:37.644Z,36.72
2018-11-29T23:14:37.639Z,36.32
2018-11-29T23:15:37.629Z,37.12
2018-11-29T23:16:37.609Z,36.91
2018-11-29T23:17:37.601Z,36.71
2018-11-29T23:18:37.589Z,36.80
2018-11-29T23:19:37.583Z,36.71
2018-11-29T23:20:37.596Z,37.70
2018-11-29T23:21:37.556Z,36.51
2018-11-29T23:22:37.544Z,36.91
2018-11-29T23:23:37.537Z,37.40
2018-11-29T23:24:37.527Z,37.21
2018-11-29T23:25:37.518Z,36.51
2018-11-29T23:26:37.503Z,36.71
2018-11-29T23:27:37.496Z,36.89
2018-11-29T23:28:37.482Z,37.68
2018-11-29T23:29:37.471Z,37.08
2018-11-29T23:30:37.461Z,36.79
2018-11-29T23:31:37.450Z,36.99
2018-11-29T23:32:37.442Z,36.89
2018-11-29T23:33:37.426Z,36.99
2018-11-29T23:34:37.417Z,36.39
2018-11-29T23:35:37.407Z,36.09
2018-11-29T23:36:37.395Z,36.87
2018-11-29T23:37:37.445Z,36.47
2018-11-29T23:38:37.376Z,36.37
2018-11-29T23:39:37.363Z,35.97
2018-11-29T23:40:37.351Z,36.27
2018-11-29T23:41:37.339Z,36.37
2018-11-29T23:42:37.337Z,36.27
2018-11-29T23:43:37.318Z,36.18
2018-11-29T23:44:37.312Z,36.37
2018-11-29T23:45:37.294Z,36.87
2018-11-29T23:46:37.285Z,36.37
2018-11-29T23:47:37.274Z,36.65
2018-11-29T23:48:37.263Z,36.16
2018-11-29T23:49:37.255Z,35.56
2018-11-29T23:50:37.243Z,34.46
2018-11-29T23:51:37.235Z,34.96
2018-11-29T23:52:37.223Z,34.66
2018-11-29T23:53:37.214Z,33.76
2018-11-29T23:54:37.199Z,34.56
2018-11-29T23:55:37.191Z,33.67
2018-11-29T23:56:37.178Z,33.86
2018-11-29T23:57:37.166Z,33.48
2018-11-29T23:58:37.159Z,33.88
2018-11-29T23:59:37.156Z,33.68
